James M Cox Dayton International Airport
KDAY : now visible

Airfield :











YOU CAN JOIN US ON...

 
LOGIN :

Register | Disclaimer

   EN    FR    IT 

 









Legend :    VFR   Marginal VFR   IFR   Intensive IFR   Very Intensive IFR
Visi :
Ceiling :
>= 8 km
>= 3000ft
5 to 8 km
1000 to 3000 ft
1500m to 5 km
500 to 1000 ft
800 to 1500m
200 to 500 ft
< 800m
< 200 ft
Symbols :   Thunderstorms  Fog  Heavy snow  Heavy precipitations  Wind > 20 kt






- Airport Elevation : 1009 ft
- IATA code : DAY


KDAY - James M Cox Dayton International

CURRENT METAR :
  • 251910Z 08007KT 2 1/2SM -FZRA BR OVC007 00/M01 A2991 RMK AO2 P0000 I1001 T00001006 $

EXPIRED METARs :
  • 251856Z 06007KT 3SM -FZRA BR OVC007 00/M01 A2992 RMK AO2 PLE09B20E42SNB09E20 SLP142 PCPN VRY LGT P0005 I1000 T00001006 $
  • 251844Z 06007KT 3SM -FZRA BR OVC007 00/M01 A2993 RMK AO2 PLE09B20E42SNB09E20 PCPN VRY LGT P0004 I1000 T00001006 $
  • 251821Z 07009KT 2SM -FZRAPL BKN008 OVC050 M01/M01 A2993 RMK AO2 PLE09B20SNB09E20 P0003 I1000 T10061011 $
  • 251815Z 06009KT 2SM -FZRASN BKN008 OVC055 M01/M01 A2993 RMK AO2 PLE09SNB09 P0002 I1000 T10061011 $
  • 251756Z 06007KT 2 1/2SM -FZRAPL OVC008 M01/M01 A2996 RMK AO2 SLP155 FZDZB33E42FZRAB42PLB51 P0002 60002 I1000 I6000 T10061011 11006 21011 58021 $
  • 251747Z 06006KT 2 1/2SM -FZRA BR OVC008 M01/M01 A2997 RMK AO2 PRESFR FZDZB33E42FZRAB42 P0001 I1000 T10061011
  • 251656Z 08007KT 4SM BR OVC008 M01/M02 A2999 RMK AO2 SLP167 T10111017

TAF KDAY
Valid from the 25 at 18:00 until the 26 at 18:00 UTC


251752Z 2518/2618 08009KT 4SM -FZRAPL BR OVC008
FM252000 07011KT 4SM -FZRA BR OVC006
FM252200 07011KT 4SM BR VCSH OVC005
FM260100 06010KT 4SM -RA BR OVC005
FM260400 07008KT 4SM BR OVC005
FM261300 24010KT 5SM BR OVC005
KZID FIR / North America



MET'MAP, your aeronautical weather chart ! - Copyright ORBIFLY December 2007 - Disclaimer

ORBIFLY MET'MAP TEAM :

Programming & Development : Alexandra Zaïnal
Concept & original design : Baudouin d'Aumeries
Assistance for programming : Marc-Olivier Méhu
Technical & hardware support : Manuel Goepfert

Contact : metmap@orbifly.com




SOURCES & CREDITS :

   NOAA       Earth
Advisory